Connor, Texas
Current Conditions -  °F | °C
As of 6:53 AM on Wednesday 26 Nov 2014 (Local Time) from KUTS Reporting Station
Clear Clear  
Wind Chill: 41°   Ceiling: Unl
Heat Index: 45°   Visibility: 10mi
Dew Point: 35°   Wind: 7mph
Humidity: 68%   Direction: 200°SSW
Pressure: 30.18"   Gusts: NA
Location:  30.9578°N, 95.8924°W
Report Text: KUTS 261253Z AUTO 20006KT 10SM CLR 07/02 A3018 RMK AO2 SLP220 T00720017
Loading
Personal Weather Stations






























Interactive Weather Map New forecast layout! Learn more

10-Day Weather Forecast

Advertisements
Track Severe Weather on mobile